Sinjhoro Weather



Sinjhoro's Current Weather

Temprature 27o haze

haze

Rain: 0 %

Min Temprature27o
Max Temprature27o
Humidity69
Wind Speed3.1 m/h
Sun Rise06:00:56
Sun Set18:54:34
Current Time: 23-Aug-2019 05:15:57
Lat/Lon: 26.03, 68.81




Sinjhoro's Geo Location



Sinjhoro's Weather Forecast

Time Overall Temp Min Temp Max Temp Humidity Wind Speed Rain
23-Aug-2019 (Fri)
08:00:00 clear sky 29.010 29.010 29.447 64 6.89 m/h 0 %
11:00:00 clear sky 35.920 35.920 36.250 41 6.77 m/h 0 %
14:00:00 clear sky 39.810 39.810 40.031 28 6.42 m/h 0 %
17:00:00 clear sky 38.500 38.500 38.611 31 6.54 m/h 0 %
20:00:00 clear sky 31.550 31.550 31.550 58 8 m/h 0 %
23:00:00 clear sky 29.142 29.142 29.142 67 8.44 m/h 0 %
24-Aug-2019 (Sat)
02:00:00 clear sky 28.131 28.131 28.131 69 8.83 m/h 0 %
05:00:00 clear sky 27.555 27.555 27.555 72 7.69 m/h 0 %
08:00:00 few clouds 29.047 29.047 29.047 66 7.8 m/h 0 %
11:00:00 clear sky 34.469 34.469 34.469 49 8.35 m/h 0 %
14:00:00 scattered clouds 38.169 38.169 38.169 39 7.23 m/h 0 %
17:00:00 few clouds 36.223 36.223 36.223 44 6.92 m/h 0 %
20:00:00 clear sky 30.750 30.750 30.750 62 7.88 m/h 0 %
23:00:00 clear sky 28.369 28.369 28.369 71 8.68 m/h 0 %
25-Aug-2019 (Sun)
02:00:00 clear sky 27.731 27.731 27.731 71 7.58 m/h 0 %
05:00:00 clear sky 27.257 27.257 27.257 73 6.67 m/h 0 %
08:00:00 clear sky 28.814 28.814 28.814 66 7.21 m/h 0 %
11:00:00 clear sky 34.016 34.016 34.016 50 7.54 m/h 0 %
14:00:00 clear sky 38.250 38.250 38.250 34 6.39 m/h 0 %
17:00:00 clear sky 36.150 36.150 36.150 40 6.57 m/h 0 %
20:00:00 clear sky 31.181 31.181 31.181 57 6.32 m/h 0 %
23:00:00 clear sky 29.111 29.111 29.111 66 7.02 m/h 0 %
26-Aug-2019 (Mon)
02:00:00 scattered clouds 27.965 27.965 27.965 68 6.99 m/h 0 %
05:00:00 scattered clouds 27.550 27.550 27.550 69 5.22 m/h 0 %
08:00:00 clear sky 29.467 29.467 29.467 60 6.75 m/h 0 %
11:00:00 clear sky 36.072 36.072 36.072 36 6.47 m/h 0 %
14:00:00 scattered clouds 40.184 40.184 40.184 25 6.64 m/h 0 %
17:00:00 broken clouds 38.620 38.620 38.620 28 5.96 m/h 0 %
20:00:00 overcast clouds 34.072 34.072 34.072 45 5.99 m/h 0 %
23:00:00 overcast clouds 31.614 31.614 31.614 55 7.52 m/h 0 %
27-Aug-2019 (Tue)
02:00:00 scattered clouds 29.816 29.816 29.816 58 7.53 m/h 0 %
05:00:00 broken clouds 30.050 30.050 30.050 51 6.44 m/h 0 %
08:00:00 few clouds 33.335 33.335 33.335 37 6.68 m/h 0 %
11:00:00 few clouds 41.236 41.236 41.236 22 5.33 m/h 0 %
14:00:00 clear sky 44.836 44.836 44.836 16 4.3 m/h 0 %
17:00:00 few clouds 40.465 40.465 40.465 29 7.72 m/h 0 %
20:00:00 broken clouds 34.250 34.250 34.250 46 7.72 m/h 0 %
23:00:00 overcast clouds 32.450 32.450 32.450 54 7.28 m/h 0 %
28-Aug-2019 (Wed)
02:00:00 overcast clouds 30.857 30.857 30.857 60 7.62 m/h 0 %
05:00:00 overcast clouds 30.472 30.472 30.472 60 6.15 m/h 0 %

Famous Cities (61)